createdAt,value
2019-03-18T00:00:05.317Z,67.30
2019-03-18T00:01:05.286Z,67.30
2019-03-18T00:02:07.869Z,67.20
2019-03-18T00:03:05.791Z,67.20
2019-03-18T00:04:05.122Z,67.20
2019-03-18T00:05:05.234Z,67.10
2019-03-18T00:06:05.434Z,67.00
2019-03-18T00:07:05.468Z,66.90
2019-03-18T00:08:07.982Z,66.90
2019-03-18T00:09:05.986Z,66.90
2019-03-18T00:10:04.935Z,66.90
2019-03-18T00:11:04.922Z,67.00
2019-03-18T00:12:05.007Z,66.90
2019-03-18T00:13:05.016Z,67.00
2019-03-18T00:14:07.559Z,67.00
2019-03-18T00:15:05.500Z,67.00
2019-03-18T00:16:05.689Z,67.10
2019-03-18T00:17:05.775Z,67.10
2019-03-18T00:18:08.297Z,66.90
2019-03-18T00:19:07.684Z,67.00
2019-03-18T00:20:05.564Z,67.00
2019-03-18T00:21:05.554Z,66.90
2019-03-18T00:22:08.225Z,66.90
2019-03-18T00:23:07.659Z,66.90
2019-03-18T00:24:05.691Z,66.90
2019-03-18T00:25:05.777Z,66.80
2019-03-18T00:26:05.789Z,66.80
2019-03-18T00:27:07.469Z,66.80
2019-03-18T00:28:05.328Z,66.80
2019-03-18T00:29:07.864Z,66.80
2019-03-18T00:30:05.825Z,66.80
2019-03-18T00:31:05.898Z,66.70
2019-03-18T00:32:05.917Z,66.70
2019-03-18T00:33:04.939Z,66.70
2019-03-18T00:34:05.032Z,66.50
2019-03-18T00:35:05.352Z,66.60
2019-03-18T00:36:05.370Z,66.60
2019-03-18T00:37:05.360Z,66.60
2019-03-18T00:38:05.452Z,66.60
2019-03-18T00:39:05.452Z,66.70
2019-03-18T00:40:05.558Z,66.70
2019-03-18T00:41:05.573Z,66.80
2019-03-18T00:42:05.619Z,66.80
2019-03-18T00:43:10.636Z,66.60
2019-03-18T00:44:05.603Z,66.50
2019-03-18T00:45:15.676Z,66.30
2019-03-18T00:46:05.904Z,66.20
2019-03-18T00:47:05.867Z,66.10
2019-03-18T00:48:05.851Z,66.00
2019-03-18T00:49:08.576Z,66.00
2019-03-18T00:50:05.612Z,66.10
2019-03-18T00:51:05.604Z,66.00
2019-03-18T00:52:05.706Z,66.00
2019-03-18T00:53:08.248Z,65.90
2019-03-18T00:54:05.102Z,65.90
2019-03-18T00:55:05.178Z,65.90
2019-03-18T00:56:05.337Z,65.90
2019-03-18T00:57:07.958Z,65.50
2019-03-18T00:58:05.948Z,65.50
2019-03-18T00:59:04.965Z,65.20
2019-03-18T01:00:05.127Z,65.20
2019-03-18T01:01:05.318Z,65.10
2019-03-18T01:02:05.387Z,64.90
2019-03-18T01:03:05.360Z,64.90
2019-03-18T01:04:05.321Z,64.80
2019-03-18T01:05:05.417Z,64.50
2019-03-18T01:06:05.446Z,64.40
2019-03-18T01:07:07.957Z,64.40
2019-03-18T01:08:08.394Z,64.00
2019-03-18T01:09:07.737Z,63.90
2019-03-18T01:10:05.734Z,63.90
2019-03-18T01:11:05.794Z,63.80
2019-03-18T01:12:08.434Z,63.80
2019-03-18T01:13:05.399Z,63.80
2019-03-18T01:14:05.382Z,63.80
2019-03-18T01:15:05.377Z,63.70
2019-03-18T01:16:05.425Z,63.70
2019-03-18T01:17:05.535Z,63.70
2019-03-18T01:18:05.558Z,63.70
2019-03-18T01:19:05.664Z,63.70
2019-03-18T01:20:05.683Z,63.70
2019-03-18T01:21:08.296Z,63.80
2019-03-18T01:22:05.141Z,63.90
2019-03-18T01:23:05.152Z,63.90
2019-03-18T01:24:05.128Z,63.80
2019-03-18T01:25:10.213Z,63.70
2019-03-18T01:26:05.037Z,63.70
2019-03-18T01:27:07.581Z,63.50
2019-03-18T01:28:05.451Z,63.50
2019-03-18T01:29:07.995Z,63.60
2019-03-18T01:30:08.449Z,63.50
2019-03-18T01:31:07.964Z,63.40
2019-03-18T01:32:08.518Z,63.50
2019-03-18T01:33:08.128Z,63.40
2019-03-18T01:34:07.600Z,63.10
2019-03-18T01:35:05.527Z,63.10
2019-03-18T01:36:08.064Z,63.00
2019-03-18T01:37:07.413Z,62.80
2019-03-18T01:38:07.873Z,62.60
2019-03-18T01:39:05.773Z,62.60
2019-03-18T01:40:05.844Z,62.40
2019-03-18T01:41:05.860Z,62.30
2019-03-18T01:42:08.468Z,61.80
2019-03-18T01:43:05.317Z,61.80
2019-03-18T01:44:05.627Z,61.80
2019-03-18T01:45:05.774Z,61.50
2019-03-18T01:46:05.786Z,61.10
2019-03-18T01:47:05.858Z,60.50
2019-03-18T01:48:08.567Z,60.20
2019-03-18T01:49:05.484Z,60.20
2019-03-18T01:50:08.151Z,60.20
2019-03-18T01:51:05.035Z,60.20
2019-03-18T01:52:05.103Z,60.20
2019-03-18T01:53:07.608Z,60.20
2019-03-18T01:54:08.240Z,60.30
2019-03-18T01:55:05.238Z,60.30
2019-03-18T01:56:10.319Z,60.50
2019-03-18T01:57:05.184Z,60.50
2019-03-18T01:58:05.268Z,60.70
2019-03-18T01:59:08.002Z,60.70
2019-03-18T02:00:05.925Z,60.70
2019-03-18T02:01:04.963Z,60.80
2019-03-18T02:02:05.049Z,60.90
2019-03-18T02:03:05.233Z,60.90
2019-03-18T02:04:05.451Z,60.90
2019-03-18T02:05:05.411Z,60.90
2019-03-18T02:06:05.352Z,61.00
2019-03-18T02:07:05.580Z,61.10
2019-03-18T02:08:08.078Z,61.10
2019-03-18T02:09:04.922Z,61.10
2019-03-18T02:10:12.627Z,61.00
2019-03-18T02:11:05.487Z,61.00
2019-03-18T02:12:05.525Z,61.20
2019-03-18T02:13:04.955Z,61.30
2019-03-18T02:14:07.564Z,61.40
2019-03-18T02:15:05.434Z,61.30
2019-03-18T02:16:07.973Z,61.50
2019-03-18T02:17:05.901Z,61.60
2019-03-18T02:18:05.950Z,61.60
2019-03-18T02:19:07.557Z,61.60
2019-03-18T02:20:05.420Z,61.60
2019-03-18T02:21:05.394Z,61.70
2019-03-18T02:22:05.403Z,61.60
2019-03-18T02:23:07.973Z,61.50
2019-03-18T02:24:05.815Z,61.50
2019-03-18T02:25:08.399Z,61.30
2019-03-18T02:26:05.323Z,61.30
2019-03-18T02:27:05.313Z,61.30
2019-03-18T02:28:07.845Z,61.30
2019-03-18T02:29:05.836Z,61.30
2019-03-18T02:30:05.918Z,61.30
2019-03-18T02:31:05.876Z,61.30
2019-03-18T02:32:08.517Z,61.50
2019-03-18T02:33:07.942Z,61.50
2019-03-18T02:34:05.872Z,61.50
2019-03-18T02:35:08.370Z,61.60
2019-03-18T02:36:05.262Z,61.60
2019-03-18T02:37:05.471Z,61.60
2019-03-18T02:38:08.082Z,61.60
2019-03-18T02:39:07.592Z,61.60
2019-03-18T02:40:05.500Z,61.60
2019-03-18T02:41:05.536Z,61.60
2019-03-18T02:42:05.643Z,61.60
2019-03-18T02:43:05.611Z,61.50
2019-03-18T02:44:05.701Z,61.40
2019-03-18T02:45:05.749Z,61.20
2019-03-18T02:46:11.146Z,61.20
2019-03-18T02:47:05.267Z,61.10
2019-03-18T02:48:05.285Z,61.20
2019-03-18T02:49:05.288Z,61.30
2019-03-18T02:50:05.238Z,61.30
2019-03-18T02:51:05.240Z,61.30
2019-03-18T02:52:05.240Z,61.50
2019-03-18T02:53:05.244Z,61.40
2019-03-18T02:54:05.232Z,61.40
2019-03-18T02:55:07.799Z,61.50
2019-03-18T02:56:05.797Z,61.40
2019-03-18T02:57:05.756Z,61.30
2019-03-18T02:58:05.754Z,61.30
2019-03-18T02:59:08.382Z,61.30
2019-03-18T03:00:05.294Z,61.30
2019-03-18T03:01:05.366Z,61.20
2019-03-18T03:02:05.337Z,61.10
2019-03-18T03:03:05.399Z,61.00
2019-03-18T03:04:05.390Z,61.00
2019-03-18T03:05:05.371Z,61.10
2019-03-18T03:06:07.897Z,61.30
2019-03-18T03:07:05.739Z,61.30
2019-03-18T03:08:05.710Z,61.30
2019-03-18T03:09:05.981Z,61.40
2019-03-18T03:10:05.100Z,61.40
2019-03-18T03:11:05.398Z,61.40
2019-03-18T03:12:05.497Z,61.40
2019-03-18T03:13:05.534Z,61.60
2019-03-18T03:14:05.684Z,61.60
2019-03-18T03:15:08.240Z,61.70
2019-03-18T03:16:05.125Z,61.70
2019-03-18T03:17:05.137Z,61.80
2019-03-18T03:18:07.681Z,62.00
2019-03-18T03:19:05.565Z,62.00
2019-03-18T03:20:05.603Z,62.10
2019-03-18T03:21:05.904Z,62.10
2019-03-18T03:22:05.914Z,62.30
2019-03-18T03:23:07.465Z,62.40
2019-03-18T03:24:10.455Z,62.40
2019-03-18T03:25:05.388Z,62.40
2019-03-18T03:26:07.905Z,62.50
2019-03-18T03:27:10.803Z,62.60
2019-03-18T03:28:05.670Z,62.60
2019-03-18T03:29:05.750Z,62.70
2019-03-18T03:30:05.889Z,62.70
2019-03-18T03:31:07.420Z,62.80
2019-03-18T03:32:05.332Z,62.80
2019-03-18T03:33:05.343Z,62.90
2019-03-18T03:34:05.481Z,62.90
2019-03-18T03:35:05.659Z,62.90
2019-03-18T03:36:08.340Z,63.20
2019-03-18T03:37:05.195Z,63.20
2019-03-18T03:38:07.797Z,63.10
2019-03-18T03:39:05.649Z,63.10
2019-03-18T03:40:08.231Z,63.30
2019-03-18T03:41:07.604Z,63.20
2019-03-18T03:42:07.972Z,63.40
2019-03-18T03:43:05.806Z,63.40
2019-03-18T03:44:05.092Z,63.50
2019-03-18T03:45:05.240Z,63.50
2019-03-18T03:46:07.792Z,63.70
2019-03-18T03:47:05.821Z,63.70
2019-03-18T03:48:08.479Z,63.80
2019-03-18T03:49:05.317Z,63.80
2019-03-18T03:50:07.879Z,63.80
2019-03-18T03:51:05.880Z,63.80
2019-03-18T03:52:05.953Z,63.90
2019-03-18T03:53:04.952Z,63.90
2019-03-18T03:54:04.934Z,63.80
2019-03-18T03:55:05.101Z,63.90
2019-03-18T03:56:07.638Z,63.90
2019-03-18T03:57:10.624Z,63.90
2019-03-18T03:58:05.610Z,63.90
2019-03-18T03:59:05.625Z,63.90
2019-03-18T04:00:08.246Z,63.90
2019-03-18T04:01:05.140Z,63.90
2019-03-18T04:02:05.125Z,63.90
2019-03-18T04:03:05.157Z,63.90
2019-03-18T04:04:05.112Z,64.00
2019-03-18T04:05:07.771Z,64.10
2019-03-18T04:06:08.171Z,64.10
2019-03-18T04:07:05.163Z,64.10
2019-03-18T04:08:05.166Z,64.00
2019-03-18T04:09:05.135Z,64.10
2019-03-18T04:10:05.101Z,64.20
2019-03-18T04:11:09.090Z,64.20
2019-03-18T04:12:10.219Z,64.20
2019-03-18T04:13:07.667Z,64.30
2019-03-18T04:14:08.215Z,64.40
2019-03-18T04:15:05.128Z,64.40
2019-03-18T04:16:05.100Z,64.40
2019-03-18T04:17:05.212Z,64.40
2019-03-18T04:18:05.274Z,64.30
2019-03-18T04:19:07.775Z,64.40
2019-03-18T04:20:05.691Z,64.40
2019-03-18T04:21:05.709Z,64.40
2019-03-18T04:22:05.718Z,64.60
2019-03-18T04:23:05.754Z,64.60
2019-03-18T04:24:05.869Z,64.50
2019-03-18T04:25:04.922Z,64.50
2019-03-18T04:26:04.931Z,64.50
2019-03-18T04:27:07.389Z,64.60
2019-03-18T04:28:07.835Z,64.70
2019-03-18T04:29:08.340Z,64.80
2019-03-18T04:30:07.824Z,64.90
2019-03-18T04:31:05.925Z,64.90
2019-03-18T04:32:05.024Z,65.00
2019-03-18T04:33:07.716Z,65.20
2019-03-18T04:34:05.619Z,65.20
2019-03-18T04:35:05.638Z,65.20
2019-03-18T04:36:05.620Z,65.20
2019-03-18T04:37:08.171Z,65.20
2019-03-18T04:38:05.036Z,65.20
2019-03-18T04:39:05.046Z,65.20
2019-03-18T04:40:05.034Z,65.40
2019-03-18T04:41:05.054Z,65.40
2019-03-18T04:42:05.059Z,65.60
2019-03-18T04:43:05.173Z,65.70
2019-03-18T04:44:05.389Z,65.70
2019-03-18T04:45:08.025Z,66.00
2019-03-18T04:46:05.062Z,65.90
2019-03-18T04:47:14.806Z,66.00
2019-03-18T04:48:05.870Z,66.10
2019-03-18T04:49:05.839Z,66.20
2019-03-18T04:50:10.918Z,66.20
2019-03-18T04:51:08.303Z,66.20
2019-03-18T04:52:05.173Z,66.20
2019-03-18T04:53:05.150Z,66.30
2019-03-18T04:54:05.206Z,66.50
2019-03-18T04:55:07.768Z,66.70
2019-03-18T04:56:05.610Z,66.70
2019-03-18T04:57:05.719Z,66.70
2019-03-18T04:58:05.700Z,66.70
2019-03-18T04:59:05.698Z,66.80
2019-03-18T05:00:05.669Z,66.80
2019-03-18T05:01:08.320Z,66.90
2019-03-18T05:02:05.171Z,66.90
2019-03-18T05:03:05.191Z,66.90
2019-03-18T05:04:05.483Z,67.00
2019-03-18T05:05:05.540Z,67.00
2019-03-18T05:06:05.690Z,67.10
2019-03-18T05:07:05.730Z,67.10
2019-03-18T05:08:08.375Z,67.10
2019-03-18T05:09:05.311Z,67.10
2019-03-18T05:10:07.930Z,67.10
2019-03-18T05:11:08.467Z,67.10
2019-03-18T05:12:08.069Z,67.10
2019-03-18T05:13:04.914Z,67.10
2019-03-18T05:14:05.880Z,67.00
2019-03-18T05:15:05.880Z,66.90
2019-03-18T05:16:05.916Z,66.90
2019-03-18T05:17:08.500Z,66.90
2019-03-18T05:18:05.383Z,66.90
2019-03-18T05:19:08.009Z,66.80
2019-03-18T05:20:04.964Z,66.80
2019-03-18T05:21:07.479Z,66.80
2019-03-18T05:22:05.352Z,66.80
2019-03-18T05:23:05.313Z,66.80
2019-03-18T05:24:08.016Z,66.90
2019-03-18T05:25:09.015Z,66.90
2019-03-18T05:26:08.418Z,67.00
2019-03-18T05:27:05.469Z,67.00
2019-03-18T05:28:05.536Z,67.00
2019-03-18T05:29:08.135Z,67.20
2019-03-18T05:30:07.621Z,67.40
2019-03-18T05:31:05.550Z,67.20
2019-03-18T05:32:05.572Z,67.20
2019-03-18T05:33:05.607Z,67.20
2019-03-18T05:34:05.633Z,67.10
2019-03-18T05:35:05.663Z,67.10
2019-03-18T05:36:08.372Z,67.10
2019-03-18T05:37:05.296Z,67.10
2019-03-18T05:38:05.281Z,67.00
2019-03-18T05:39:05.226Z,67.00
2019-03-18T05:40:05.176Z,66.90
2019-03-18T05:41:05.205Z,67.00
2019-03-18T05:42:05.286Z,66.90
2019-03-18T05:43:05.457Z,66.90
2019-03-18T05:44:08.423Z,66.90
2019-03-18T05:45:05.843Z,66.80
2019-03-18T05:46:08.479Z,66.90
2019-03-18T05:47:05.349Z,66.80
2019-03-18T05:48:05.333Z,66.80
2019-03-18T05:49:05.406Z,66.70
2019-03-18T05:50:07.924Z,66.70
2019-03-18T05:51:08.328Z,66.70
2019-03-18T05:52:07.804Z,66.80
2019-03-18T05:53:08.212Z,66.90
2019-03-18T05:54:05.090Z,66.90
2019-03-18T05:55:05.108Z,66.90
2019-03-18T05:56:05.068Z,66.90
2019-03-18T05:57:05.102Z,66.90
2019-03-18T05:58:10.363Z,67.20
2019-03-18T05:59:07.771Z,67.30
2019-03-18T06:00:05.786Z,67.40
2019-03-18T06:01:10.974Z,67.40
2019-03-18T06:02:05.890Z,67.40
2019-03-18T06:03:08.551Z,66.80
2019-03-18T06:04:07.997Z,66.10
2019-03-18T06:05:08.426Z,65.60
2019-03-18T06:06:07.813Z,64.90
2019-03-18T06:07:08.290Z,64.30
2019-03-18T06:08:05.277Z,64.20
2019-03-18T06:09:07.815Z,63.60
2019-03-18T06:10:05.676Z,63.60
2019-03-18T06:11:05.709Z,63.60
2019-03-18T06:12:05.754Z,63.90
2019-03-18T06:13:05.892Z,64.00
2019-03-18T06:14:07.608Z,63.60
2019-03-18T06:15:05.657Z,63.60
2019-03-18T06:16:05.686Z,63.60
2019-03-18T06:17:08.284Z,62.90
2019-03-18T06:18:07.655Z,62.40
2019-03-18T06:19:08.012Z,61.70
2019-03-18T06:20:08.417Z,61.40
2019-03-18T06:21:05.268Z,61.30
2019-03-18T06:22:05.425Z,60.80
2019-03-18T06:23:07.891Z,59.80
2019-03-18T06:24:06.950Z,59.80
2019-03-18T06:25:07.511Z,58.70
2019-03-18T06:26:07.871Z,58.10
2019-03-18T06:27:05.773Z,58.10
2019-03-18T06:28:05.756Z,58.10
2019-03-18T06:29:06.009Z,57.60
2019-03-18T06:30:05.029Z,57.40
2019-03-18T06:31:05.062Z,56.80
2019-03-18T06:32:07.625Z,56.20
2019-03-18T06:33:08.152Z,56.30
2019-03-18T06:34:07.694Z,56.10
2019-03-18T06:35:08.174Z,55.40
2019-03-18T06:36:07.673Z,55.10
2019-03-18T06:37:08.223Z,55.00
2019-03-18T06:38:10.152Z,54.40
2019-03-18T06:39:05.041Z,54.40
2019-03-18T06:40:05.090Z,54.50
2019-03-18T06:41:05.097Z,54.40
2019-03-18T06:42:05.309Z,54.30
2019-03-18T06:43:05.392Z,54.10
2019-03-18T06:44:05.777Z,53.50
2019-03-18T06:45:05.793Z,53.40
2019-03-18T06:46:05.797Z,52.80
2019-03-18T06:47:05.802Z,52.80
2019-03-18T06:48:05.931Z,52.40
2019-03-18T06:49:04.915Z,52.30
2019-03-18T06:50:04.955Z,51.90
2019-03-18T06:51:04.942Z,51.80
2019-03-18T06:52:07.640Z,50.50
2019-03-18T06:53:08.044Z,50.60
2019-03-18T06:54:05.955Z,50.60
2019-03-18T06:55:05.018Z,50.20
2019-03-18T06:56:04.998Z,50.40
2019-03-18T06:57:07.601Z,50.90
2019-03-18T06:58:08.138Z,50.30
2019-03-18T06:59:07.507Z,49.80
2019-03-18T07:00:07.398Z,49.80
2019-03-18T07:01:05.496Z,49.40
2019-03-18T07:02:05.416Z,49.00
2019-03-18T07:03:07.998Z,48.30
2019-03-18T07:04:08.378Z,48.40
2019-03-18T07:05:07.745Z,49.00
2019-03-18T07:06:05.623Z,49.00
2019-03-18T07:07:05.776Z,49.00
2019-03-18T07:08:05.800Z,48.80
2019-03-18T07:09:08.298Z,47.70
2019-03-18T07:10:05.566Z,47.60
2019-03-18T07:11:05.600Z,47.70
2019-03-18T07:12:05.596Z,47.60
2019-03-18T07:13:05.633Z,47.50
2019-03-18T07:14:08.166Z,47.90
2019-03-18T07:15:07.845Z,47.40
2019-03-18T07:16:05.805Z,47.50
2019-03-18T07:17:05.871Z,47.40
2019-03-18T07:18:18.899Z,47.70
2019-03-18T07:19:05.154Z,47.60
2019-03-18T07:20:05.286Z,47.10
2019-03-18T07:21:07.811Z,46.40
2019-03-18T07:22:08.241Z,46.70
2019-03-18T07:23:12.668Z,46.10
2019-03-18T07:24:05.534Z,46.10
2019-03-18T07:25:08.109Z,46.10
2019-03-18T07:26:05.036Z,46.00
2019-03-18T07:27:05.078Z,45.80
2019-03-18T07:28:05.012Z,45.70
2019-03-18T07:29:05.199Z,45.70
2019-03-18T07:30:05.386Z,45.40
2019-03-18T07:31:05.473Z,45.70
2019-03-18T07:32:08.089Z,46.10
2019-03-18T07:33:10.118Z,46.20
2019-03-18T07:34:05.033Z,46.20
2019-03-18T07:35:05.737Z,46.40
2019-03-18T07:36:08.611Z,46.80
2019-03-18T07:37:05.627Z,46.90
2019-03-18T07:38:08.124Z,46.70
2019-03-18T07:39:04.979Z,46.70
2019-03-18T07:40:04.927Z,46.90
2019-03-18T07:41:05.888Z,46.80
2019-03-18T07:42:05.942Z,47.00
2019-03-18T07:43:05.111Z,46.90
2019-03-18T07:44:07.939Z,46.40
2019-03-18T07:45:08.398Z,46.30
2019-03-18T07:46:05.255Z,46.30
2019-03-18T07:47:07.773Z,46.40
2019-03-18T07:48:07.015Z,46.40
2019-03-18T07:49:07.725Z,46.30
2019-03-18T07:50:05.607Z,46.40
2019-03-18T07:51:05.624Z,46.40
2019-03-18T07:52:05.573Z,46.80
2019-03-18T07:53:05.574Z,47.20
2019-03-18T07:54:05.612Z,47.70
2019-03-18T07:55:08.116Z,48.40
2019-03-18T07:56:07.684Z,48.80
2019-03-18T07:57:05.559Z,48.90
2019-03-18T07:58:05.513Z,48.90
2019-03-18T07:59:05.537Z,49.00
2019-03-18T08:00:05.529Z,49.10
2019-03-18T08:01:05.612Z,49.10
2019-03-18T08:02:08.121Z,49.50
2019-03-18T08:03:05.023Z,49.50
2019-03-18T08:04:08.040Z,49.90
2019-03-18T08:05:04.903Z,49.90
2019-03-18T08:06:08.395Z,50.70
2019-03-18T08:07:07.881Z,51.00
2019-03-18T08:08:05.770Z,51.00
2019-03-18T08:09:05.769Z,51.10
2019-03-18T08:10:08.289Z,51.10
2019-03-18T08:11:07.702Z,51.20
2019-03-18T08:12:05.575Z,51.20
2019-03-18T08:13:08.162Z,51.40
2019-03-18T08:14:05.006Z,51.40
2019-03-18T08:15:05.021Z,51.60
2019-03-18T08:16:10.038Z,52.00
2019-03-18T08:17:08.488Z,52.10
2019-03-18T08:18:05.336Z,52.10
2019-03-18T08:19:07.954Z,52.40
2019-03-18T08:20:05.978Z,52.50
2019-03-18T08:21:04.939Z,52.70
2019-03-18T08:22:05.060Z,52.80
2019-03-18T08:23:05.131Z,53.30
2019-03-18T08:24:05.098Z,52.90
2019-03-18T08:25:05.175Z,52.80
2019-03-18T08:26:07.713Z,53.00
2019-03-18T08:27:05.609Z,53.00
2019-03-18T08:28:05.592Z,53.10
2019-03-18T08:29:05.555Z,53.20
2019-03-18T08:30:08.399Z,53.00
2019-03-18T08:31:05.328Z,53.00
2019-03-18T08:32:05.352Z,52.90
2019-03-18T08:33:05.360Z,53.00
2019-03-18T08:34:08.057Z,53.40
2019-03-18T08:35:04.970Z,53.30
2019-03-18T08:36:05.003Z,53.40
2019-03-18T08:37:07.522Z,53.70
2019-03-18T08:38:05.385Z,53.70
2019-03-18T08:39:05.364Z,53.80
2019-03-18T08:40:07.907Z,53.90
2019-03-18T08:41:05.778Z,54.00
2019-03-18T08:42:05.799Z,53.80
2019-03-18T08:43:05.910Z,53.90
2019-03-18T08:44:05.174Z,53.80
2019-03-18T08:45:05.147Z,53.80
2019-03-18T08:46:07.664Z,53.60
2019-03-18T08:47:05.566Z,53.60
2019-03-18T08:48:05.658Z,53.40
2019-03-18T08:49:08.289Z,53.30
2019-03-18T08:50:05.169Z,53.30
2019-03-18T08:51:05.167Z,53.40
2019-03-18T08:52:07.776Z,53.70
2019-03-18T08:53:08.198Z,53.60
2019-03-18T08:54:10.228Z,53.50
2019-03-18T08:55:07.646Z,53.50
2019-03-18T08:56:08.094Z,53.70
2019-03-18T08:57:05.101Z,53.70
2019-03-18T08:58:05.159Z,53.50
2019-03-18T08:59:07.760Z,53.30
2019-03-18T09:00:05.722Z,53.30
2019-03-18T09:01:08.303Z,53.40
2019-03-18T09:02:07.696Z,53.40
2019-03-18T09:03:05.543Z,53.40
2019-03-18T09:04:05.540Z,53.30
2019-03-18T09:05:05.703Z,52.90
2019-03-18T09:06:05.934Z,52.80
2019-03-18T09:07:10.246Z,52.90
2019-03-18T09:08:07.894Z,53.00
2019-03-18T09:09:05.902Z,53.10
2019-03-18T09:10:06.084Z,53.10
2019-03-18T09:11:05.227Z,53.10
2019-03-18T09:12:05.425Z,53.20
2019-03-18T09:13:05.570Z,53.30
2019-03-18T09:14:08.315Z,52.90
2019-03-18T09:15:05.406Z,52.90
2019-03-18T09:16:05.546Z,52.90
2019-03-18T09:17:05.805Z,53.00
2019-03-18T09:18:08.349Z,52.90
2019-03-18T09:19:09.566Z,52.90
2019-03-18T09:20:05.613Z,53.00
2019-03-18T09:21:05.648Z,53.10
2019-03-18T09:22:05.951Z,53.00
2019-03-18T09:23:05.070Z,53.00
2019-03-18T09:24:07.684Z,52.90
2019-03-18T09:25:05.630Z,52.90
2019-03-18T09:26:05.720Z,52.70
2019-03-18T09:27:05.862Z,52.70
2019-03-18T09:28:08.509Z,52.90
2019-03-18T09:29:08.016Z,53.00
2019-03-18T09:30:04.963Z,53.00
2019-03-18T09:31:07.649Z,53.30
2019-03-18T09:32:05.750Z,53.30
2019-03-18T09:33:05.874Z,53.40
2019-03-18T09:34:06.107Z,53.10
2019-03-18T09:35:05.278Z,53.00
2019-03-18T09:36:10.488Z,52.60
2019-03-18T09:37:05.428Z,52.60
2019-03-18T09:38:08.126Z,52.30
2019-03-18T09:39:05.069Z,52.30
2019-03-18T09:40:05.156Z,52.20
2019-03-18T09:41:07.746Z,52.20
2019-03-18T09:42:05.723Z,52.20
2019-03-18T09:43:05.948Z,52.30
2019-03-18T09:44:07.949Z,52.70
2019-03-18T09:45:05.913Z,52.70
2019-03-18T09:46:07.490Z,52.80
2019-03-18T09:47:05.537Z,52.80
2019-03-18T09:48:10.766Z,52.90
2019-03-18T09:49:22.174Z,53.30
2019-03-18T09:50:05.293Z,53.30
2019-03-18T09:51:05.504Z,53.40
2019-03-18T09:52:08.188Z,53.70
2019-03-18T09:53:07.726Z,53.70
2019-03-18T09:54:05.709Z,53.60
2019-03-18T09:55:05.814Z,53.60
2019-03-18T09:56:05.884Z,53.60
2019-03-18T09:57:06.133Z,53.60
2019-03-18T09:58:05.341Z,53.70
2019-03-18T09:59:05.436Z,53.80
2019-03-18T10:00:05.569Z,53.80
2019-03-18T10:01:08.275Z,54.20
2019-03-18T10:02:07.989Z,54.20
2019-03-18T10:03:08.590Z,54.50
2019-03-18T10:04:05.645Z,54.50
2019-03-18T10:05:05.745Z,54.70
2019-03-18T10:06:05.877Z,54.80
2019-03-18T10:07:05.119Z,54.80
2019-03-18T10:08:05.286Z,54.90
2019-03-18T10:09:05.338Z,55.10
2019-03-18T10:10:05.485Z,55.10
2019-03-18T10:11:08.174Z,55.00
2019-03-18T10:12:05.154Z,55.00
2019-03-18T10:13:05.248Z,55.10
2019-03-18T10:14:05.368Z,54.90
2019-03-18T10:15:07.965Z,55.00
2019-03-18T10:16:05.953Z,55.00
2019-03-18T10:17:10.274Z,55.10
2019-03-18T10:18:08.119Z,55.90
2019-03-18T10:19:07.784Z,56.70
2019-03-18T10:20:05.964Z,56.70
2019-03-18T10:21:07.700Z,56.40
2019-03-18T10:22:05.639Z,56.30
2019-03-18T10:23:05.756Z,55.90
2019-03-18T10:24:05.813Z,55.70
2019-03-18T10:25:05.998Z,55.40
2019-03-18T10:26:05.163Z,55.30
2019-03-18T10:27:07.781Z,55.40
2019-03-18T10:28:05.738Z,55.30
2019-03-18T10:29:06.068Z,54.90
2019-03-18T10:30:05.238Z,54.50
2019-03-18T10:31:07.828Z,54.60
2019-03-18T10:32:05.876Z,54.60
2019-03-18T10:33:05.025Z,54.60
2019-03-18T10:34:07.788Z,54.90
2019-03-18T10:35:05.780Z,54.90
2019-03-18T10:36:08.377Z,55.20
2019-03-18T10:37:05.314Z,55.20
2019-03-18T10:38:05.413Z,55.20
2019-03-18T10:39:08.042Z,55.40
2019-03-18T10:40:07.747Z,55.40
2019-03-18T10:41:05.805Z,55.40
2019-03-18T10:42:08.441Z,55.30
2019-03-18T10:43:05.340Z,55.30
2019-03-18T10:44:05.517Z,55.00
2019-03-18T10:45:05.896Z,54.90
2019-03-18T10:46:04.959Z,54.90
2019-03-18T10:47:05.093Z,54.70
2019-03-18T10:48:05.162Z,54.60
2019-03-18T10:49:05.497Z,54.70
2019-03-18T10:50:05.774Z,55.10
2019-03-18T10:51:05.902Z,55.50
2019-03-18T10:52:05.995Z,55.50
2019-03-18T10:53:07.578Z,55.60
2019-03-18T10:54:10.713Z,55.80
2019-03-18T10:55:05.829Z,55.80
2019-03-18T10:56:08.523Z,56.00
2019-03-18T10:57:05.837Z,56.10
2019-03-18T10:58:06.091Z,56.20
2019-03-18T10:59:10.241Z,56.40
2019-03-18T11:00:05.267Z,56.40
2019-03-18T11:01:08.003Z,57.30
2019-03-18T11:02:07.542Z,57.80
2019-03-18T11:03:10.593Z,58.00
2019-03-18T11:04:05.633Z,58.00
2019-03-18T11:05:08.816Z,57.10
2019-03-18T11:06:06.005Z,57.10
2019-03-18T11:07:05.223Z,56.80
2019-03-18T11:08:05.461Z,56.50
2019-03-18T11:09:08.145Z,56.40
2019-03-18T11:10:07.722Z,56.40
2019-03-18T11:11:08.320Z,56.50
2019-03-18T11:12:05.397Z,56.50
2019-03-18T11:13:05.530Z,56.50
2019-03-18T11:14:08.341Z,56.70
2019-03-18T11:15:05.241Z,56.70
2019-03-18T11:16:07.990Z,56.50
2019-03-18T11:17:08.481Z,56.40
2019-03-18T11:18:05.604Z,56.40
2019-03-18T11:19:08.490Z,55.80
2019-03-18T11:20:05.466Z,55.80
2019-03-18T11:21:08.098Z,55.50
2019-03-18T11:22:05.100Z,55.50
2019-03-18T11:23:07.713Z,56.10
2019-03-18T11:24:05.679Z,56.10
2019-03-18T11:25:08.427Z,56.50
2019-03-18T11:26:05.532Z,56.60
2019-03-18T11:27:08.298Z,56.80
2019-03-18T11:28:07.887Z,56.90
2019-03-18T11:29:11.022Z,57.10
2019-03-18T11:30:05.052Z,57.10
2019-03-18T11:31:10.268Z,57.30
2019-03-18T11:32:05.706Z,57.30
2019-03-18T11:33:08.290Z,57.10
2019-03-18T11:34:05.250Z,57.10
2019-03-18T11:35:07.997Z,57.30
2019-03-18T11:36:10.094Z,57.80
2019-03-18T11:37:05.039Z,57.80
2019-03-18T11:38:05.171Z,58.10
2019-03-18T11:39:05.571Z,58.40
2019-03-18T11:40:08.228Z,57.70
2019-03-18T11:41:05.185Z,57.70
2019-03-18T11:42:05.413Z,57.60
2019-03-18T11:43:10.596Z,56.20
2019-03-18T11:44:10.740Z,55.70
2019-03-18T11:45:08.598Z,55.80
2019-03-18T11:46:05.767Z,55.80
2019-03-18T11:47:05.841Z,55.20
2019-03-18T11:48:05.919Z,55.10
2019-03-18T11:49:05.255Z,54.60
2019-03-18T11:50:11.996Z,53.30
2019-03-18T11:51:05.234Z,52.50
2019-03-18T11:52:05.374Z,52.40
2019-03-18T11:53:15.046Z,51.70
2019-03-18T11:54:05.192Z,51.00
2019-03-18T11:55:10.494Z,50.40
2019-03-18T11:56:05.513Z,50.40
2019-03-18T11:57:05.626Z,50.40
2019-03-18T11:58:05.807Z,50.20
2019-03-18T11:59:11.012Z,48.70
2019-03-18T12:00:05.985Z,48.70
2019-03-18T12:01:07.633Z,48.20
2019-03-18T12:02:05.612Z,48.10
2019-03-18T12:03:10.877Z,48.00
2019-03-18T12:04:11.047Z,47.80
2019-03-18T12:05:05.045Z,47.70
2019-03-18T12:06:07.669Z,47.50
2019-03-18T12:07:05.632Z,47.50
2019-03-18T12:08:10.851Z,46.80
2019-03-18T12:09:06.008Z,46.80
2019-03-18T12:10:05.138Z,46.60
2019-03-18T12:11:07.894Z,46.80
2019-03-18T12:12:06.136Z,46.80
2019-03-18T12:13:07.618Z,47.70
2019-03-18T12:14:05.653Z,47.70
2019-03-18T12:15:13.435Z,48.10
2019-03-18T12:16:08.519Z,48.50
2019-03-18T12:17:05.632Z,48.50
2019-03-18T12:18:08.338Z,48.60
2019-03-18T12:19:05.369Z,48.50
2019-03-18T12:20:08.047Z,48.10
2019-03-18T12:21:05.276Z,48.10
2019-03-18T12:22:05.354Z,48.30
2019-03-18T12:23:08.169Z,49.40
2019-03-18T12:24:05.302Z,49.40
2019-03-18T12:25:05.586Z,50.10
2019-03-18T12:26:05.716Z,50.40
2019-03-18T12:27:06.066Z,50.80
2019-03-18T12:28:05.812Z,50.60
2019-03-18T12:29:08.449Z,50.40
2019-03-18T12:30:05.360Z,50.40
2019-03-18T12:31:07.960Z,50.40
2019-03-18T12:32:05.892Z,50.40
2019-03-18T12:33:07.528Z,50.70
2019-03-18T12:34:05.465Z,50.70
2019-03-18T12:35:05.583Z,50.70
2019-03-18T12:36:05.836Z,50.90
2019-03-18T12:37:05.136Z,51.00
2019-03-18T12:38:05.320Z,50.70
2019-03-18T12:39:07.956Z,50.70
2019-03-18T12:40:06.031Z,50.70
2019-03-18T12:41:05.242Z,50.70
2019-03-18T12:42:07.945Z,49.30
2019-03-18T12:43:06.073Z,49.20
2019-03-18T12:44:05.360Z,49.00
2019-03-18T12:45:09.276Z,49.10
2019-03-18T12:46:05.405Z,49.00
2019-03-18T12:47:08.038Z,48.70
2019-03-18T12:48:05.134Z,48.60
2019-03-18T12:49:07.917Z,48.60
2019-03-18T12:50:06.027Z,48.70
2019-03-18T12:51:05.259Z,48.70
2019-03-18T12:52:05.588Z,49.20